Time;durP1;ratioP1;P1;durP2;ratioP2;P2;SDS_P1;SDS_P2;PMS_P1;PMS_P2;Temp;Humidity;BMP_temperature;BMP_pressure;BME280_temperature;BME280_humidity;BME280_pressure;Samples;Min_cycle;Max_cycle;Signal;HPM_P1;HPM_P2
2023/06/24 00:01:50;;;;;;;3.38;2.00;;;15.60;99.90;;;;;;5061870;28;19926;-78
2023/06/24 00:04:18;;;;;;;2.13;1.85;;;15.60;99.90;;;;;;5078799;28;20145;-79
2023/06/24 00:06:44;;;;;;;1.67;1.50;;;15.60;99.90;;;;;;5082753;28;20230;-79
2023/06/24 00:09:10;;;;;;;1.63;1.50;;;15.60;99.90;;;;;;5079679;28;20127;-79
2023/06/24 00:11:36;;;;;;;1.48;1.27;;;15.50;99.90;;;;;;5067208;28;20161;-79
2023/06/24 00:14:01;;;;;;;1.33;1.23;;;15.50;99.90;;;;;;5070968;28;20040;-79
2023/06/24 00:16:27;;;;;;;1.67;1.38;;;15.50;99.90;;;;;;5071301;28;20044;-79
2023/06/24 00:18:58;;;;;;;1.40;1.30;;;15.40;99.90;;;;;;5072654;28;20047;-78
2023/06/24 00:21:31;;;;;;;1.33;1.23;;;15.30;99.90;;;;;;5078309;28;20059;-78
2023/06/24 00:23:58;;;;;;;1.48;1.20;;;15.30;99.90;;;;;;5040851;28;20479;-78
2023/06/24 00:26:24;;;;;;;1.35;1.25;;;15.20;99.90;;;;;;5072384;28;20044;-78
2023/06/24 00:28:50;;;;;;;1.20;1.10;;;15.20;99.90;;;;;;5079561;28;20051;-79
2023/06/24 00:31:16;;;;;;;1.20;1.10;;;15.20;99.90;;;;;;5053412;28;20408;-78
2023/06/24 00:33:42;;;;;;;1.52;1.25;;;15.20;99.90;;;;;;5068563;28;20059;-78
2023/06/24 00:36:11;;;;;;;1.33;1.23;;;15.20;99.90;;;;;;5035829;28;20044;-78
2023/06/24 00:38:38;;;;;;;1.60;1.20;;;15.20;99.90;;;;;;5052897;28;20040;-78
2023/06/24 00:41:04;;;;;;;1.30;1.15;;;15.20;99.90;;;;;;5069266;28;20115;-78
2023/06/24 00:43:29;;;;;;;;;;;15.20;99.90;;;;;;5068860;28;20453;-78
2023/06/24 00:45:56;;;;;;;1.38;1.20;;;15.10;99.90;;;;;;5089406;28;19923;-78
2023/06/24 00:48:22;;;;;;;1.13;1.02;;;15.10;99.90;;;;;;5089094;28;20424;-78
2023/06/24 00:50:49;;;;;;;1.45;1.20;;;15.20;99.90;;;;;;5062829;28;20044;-78
2023/06/24 00:53:16;;;;;;;1.30;0.90;;;15.20;99.90;;;;;;5069287;28;20071;-78
2023/06/24 00:55:41;;;;;;;1.52;1.10;;;15.10;99.90;;;;;;5068880;28;20056;-78
2023/06/24 00:58:08;;;;;;;1.17;1.05;;;15.10;99.90;;;;;;5077031;28;20044;-78
2023/06/24 01:00:34;;;;;;;;;;;15.00;99.90;;;;;;5072789;28;20047;-77
2023/06/24 01:03:00;;;;;;;1.30;1.20;;;15.00;99.90;;;;;;5080901;28;19927;-78
2023/06/24 01:05:26;;;;;;;;;;;15.00;99.90;;;;;;5069243;28;20044;-78
2023/06/24 01:07:55;;;;;;;1.45;1.20;;;15.00;99.90;;;;;;5068789;28;19924;-78
2023/06/24 01:10:23;;;;;;;1.40;1.30;;;15.00;99.90;;;;;;5069845;28;20113;-77
2023/06/24 01:12:49;;;;;;;1.30;1.13;;;15.00;99.90;;;;;;5086294;28;20036;-78
2023/06/24 01:15:16;;;;;;;1.52;1.30;;;15.00;99.90;;;;;;5075861;28;20077;-78
2023/06/24 01:18:08;;;;;;;1.63;1.13;;;15.00;99.90;;;;;;5070173;28;20036;-78
2023/06/24 01:20:53;;;;;;;1.60;1.20;;;15.00;99.90;;;;;;5068887;28;20134;-78
2023/06/24 01:23:37;;;;;;;1.58;1.30;;;15.00;99.90;;;;;;5074022;28;20044;-78
2023/06/24 01:26:29;;;;;;;1.42;1.33;;;15.00;99.90;;;;;;5069252;28;20517;-78
2023/06/24 01:29:21;;;;;;;1.35;1.20;;;15.00;99.90;;;;;;5069242;28;20495;-78
2023/06/24 01:31:59;;;;;;;1.30;1.10;;;15.00;99.90;;;;;;5079097;28;20390;-78
2023/06/24 01:35:01;;;;;;;1.30;1.20;;;15.00;99.90;;;;;;5073192;28;20055;-78
2023/06/24 01:37:42;;;;;;;1.50;1.25;;;15.00;99.90;;;;;;5047987;28;20080;-77
2023/06/24 01:40:14;;;;;;;1.98;1.30;;;14.90;99.90;;;;;;5071985;28;20055;-78
2023/06/24 01:42:42;;;;;;;1.30;1.20;;;15.00;99.90;;;;;;5067956;28;20040;-78
2023/06/24 01:45:13;;;;;;;1.67;1.30;;;14.90;99.90;;;;;;5072127;28;20056;-78
2023/06/24 01:47:43;;;;;;;2.28;1.50;;;15.00;99.90;;;;;;5072070;28;20119;-78
2023/06/24 01:50:11;;;;;;;1.63;1.40;;;15.00;99.90;;;;;;5055456;28;20063;-78
2023/06/24 01:52:41;;;;;;;1.30;1.20;;;14.90;99.90;;;;;;5071816;28;20044;-78
2023/06/24 01:55:09;;;;;;;1.92;1.48;;;14.90;99.90;;;;;;5042437;28;20103;-78
2023/06/24 01:57:37;;;;;;;1.73;1.40;;;14.90;99.90;;;;;;5099970;27;20047;-78
2023/06/24 02:00:06;;;;;;;1.50;1.40;;;15.00;99.90;;;;;;5115489;27;20111;-78
2023/06/24 02:02:33;;;;;;;1.55;1.45;;;15.00;99.90;;;;;;5081490;28;20047;-78
2023/06/24 02:05:02;;;;;;;1.95;1.55;;;15.00;99.90;;;;;;5099497;27;20475;-78
2023/06/24 02:07:32;;;;;;;1.85;1.50;;;15.00;99.90;;;;;;5115721;27;20321;-78
2023/06/24 02:10:00;;;;;;;1.50;1.40;;;15.10;99.90;;;;;;5087179;28;20540;-78
2023/06/24 02:12:27;;;;;;;1.50;1.38;;;15.10;99.90;;;;;;5111874;27;20110;-80
2023/06/24 02:14:55;;;;;;;1.58;1.48;;;15.10;99.90;;;;;;5098221;27;20095;-78
2023/06/24 02:17:24;;;;;;;1.92;1.60;;;15.20;99.90;;;;;;5098480;27;20082;-78
2023/06/24 02:19:51;;;;;;;1.67;1.48;;;15.10;99.90;;;;;;5106465;28;20426;-78
2023/06/24 02:22:18;;;;;;;1.70;1.50;;;15.10;99.90;;;;;;5078547;28;20114;-78
2023/06/24 02:24:44;;;;;;;1.80;1.30;;;15.20;99.90;;;;;;5115152;27;20103;-78
2023/06/24 02:27:12;;;;;;;1.60;1.50;;;15.10;99.90;;;;;;5114254;27;20130;-78
2023/06/24 02:29:39;;;;;;;1.60;1.35;;;15.20;99.90;;;;;;5113936;27;20058;-78
2023/06/24 02:32:06;;;;;;;2.10;1.60;;;15.10;99.90;;;;;;5085299;28;20036;-78
2023/06/24 02:34:32;;;;;;;1.50;1.40;;;15.10;99.90;;;;;;5100258;27;20035;-78
2023/06/24 02:36:58;;;;;;;1.98;1.55;;;15.20;99.90;;;;;;5115229;27;20115;-78
2023/06/24 02:39:23;;;;;;;2.13;1.73;;;15.10;99.90;;;;;;5130097;27;20075;-78
2023/06/24 02:41:49;;;;;;;2.33;2.00;;;15.10;99.90;;;;;;5094775;28;20050;-78
2023/06/24 02:44:16;;;;;;;2.10;1.80;;;15.20;99.90;;;;;;5097011;27;20043;-78
2023/06/24 02:46:43;;;;;;;2.60;2.00;;;15.20;99.90;;;;;;5112782;27;20122;-78
2023/06/24 02:49:12;;;;;;;2.38;2.00;;;15.10;99.90;;;;;;5113658;27;20054;-79
2023/06/24 02:51:42;;;;;;;2.80;2.13;;;15.10;99.90;;;;;;5098178;28;20047;-78
2023/06/24 02:54:09;;;;;;;2.20;1.98;;;15.10;99.90;;;;;;5106812;27;20072;-78
2023/06/24 02:56:41;;;;;;;2.63;2.30;;;15.10;99.90;;;;;;5113961;27;20058;-79
2023/06/24 02:59:07;;;;;;;2.92;2.13;;;15.10;99.90;;;;;;5098066;27;20046;-81
2023/06/24 03:01:38;;;;;;;2.40;2.20;;;15.10;99.90;;;;;;5098367;27;20126;-81
2023/06/24 03:04:04;;;;;;;2.67;2.20;;;15.10;99.90;;;;;;5115443;27;20039;-81
2023/06/24 03:06:31;;;;;;;2.20;2.00;;;15.10;99.90;;;;;;5092454;27;20832;-81
2023/06/24 03:08:58;;;;;;;2.28;1.88;;;15.10;99.90;;;;;;5145380;27;20047;-81
2023/06/24 03:11:25;;;;;;;1.75;1.65;;;15.00;99.90;;;;;;5097565;27;20159;-81
2023/06/24 03:13:51;;;;;;;2.28;1.88;;;15.10;99.90;;;;;;5097559;27;20050;-81
2023/06/24 03:16:17;;;;;;;1.80;1.67;;;15.00;99.90;;;;;;5113990;27;20046;-80
2023/06/24 03:18:42;;;;;;;2.20;1.75;;;15.00;99.90;;;;;;5114189;27;20035;-81
2023/06/24 03:21:09;;;;;;;2.75;2.05;;;15.00;99.90;;;;;;5114195;27;20081;-80
2023/06/24 03:23:35;;;;;;;1.83;1.58;;;15.00;99.90;;;;;;5096204;27;20039;-81
2023/06/24 03:26:02;;;;;;;2.20;1.60;;;15.00;99.90;;;;;;5076847;28;20111;-81
2023/06/24 03:28:30;;;;;;;1.90;1.70;;;15.00;99.90;;;;;;5114274;27;20053;-81
2023/06/24 03:30:57;;;;;;;1.70;1.60;;;15.00;99.90;;;;;;5097355;27;20183;-81
2023/06/24 03:33:24;;;;;;;2.00;1.70;;;15.00;99.90;;;;;;5097072;27;20486;-81
2023/06/24 03:35:51;;;;;;;2.55;1.80;;;15.00;99.90;;;;;;5063924;27;20358;-81
2023/06/24 03:38:16;;;;;;;2.22;1.85;;;15.10;99.90;;;;;;5114098;27;20231;-81
2023/06/24 03:40:43;;;;;;;1.80;1.67;;;15.10;99.90;;;;;;5097394;27;20508;-81
2023/06/24 03:43:09;;;;;;;2.25;1.90;;;15.10;99.90;;;;;;5096815;27;20070;-81
2023/06/24 03:45:35;;;;;;;1.77;1.48;;;15.10;99.90;;;;;;5096702;27;20469;-80
2023/06/24 03:48:01;;;;;;;2.05;1.73;;;15.20;99.90;;;;;;5113783;27;20053;-81
2023/06/24 03:50:26;;;;;;;2.38;1.88;;;15.20;99.90;;;;;;5148086;27;20043;-81
2023/06/24 03:52:52;;;;;;;1.80;1.70;;;15.20;99.90;;;;;;5148052;27;20039;-81
2023/06/24 03:55:18;;;;;;;2.35;1.75;;;15.30;99.90;;;;;;5113512;27;20059;-80
2023/06/24 03:57:43;;;;;;;1.73;1.60;;;15.30;99.90;;;;;;5095491;27;20045;-80
2023/06/24 04:00:14;;;;;;;1.85;1.50;;;15.30;99.90;;;;;;5147967;27;20035;-81
2023/06/24 04:02:41;;;;;;;1.85;1.30;;;15.40;99.90;;;;;;5113853;27;20047;-81
2023/06/24 04:05:07;;;;;;;1.75;1.38;;;15.40;99.90;;;;;;5113263;27;20043;-81
2023/06/24 04:07:35;;;;;;;1.80;1.50;;;15.40;99.90;;;;;;5096575;27;20127;-81
2023/06/24 04:10:04;;;;;;;2.25;1.70;;;15.40;99.90;;;;;;5096843;27;20039;-81
2023/06/24 04:12:30;;;;;;;1.88;1.50;;;15.50;99.90;;;;;;5096515;27;20043;-80
2023/06/24 04:14:55;;;;;;;2.10;1.80;;;15.50;99.90;;;;;;5110127;28;20095;-80
2023/06/24 04:17:21;;;;;;;1.60;1.50;;;15.50;99.90;;;;;;5110171;28;20123;-80
2023/06/24 04:19:47;;;;;;;1.65;1.50;;;15.60;99.90;;;;;;5092935;28;20104;-80
2023/06/24 04:22:13;;;;;;;1.70;1.60;;;15.60;99.90;;;;;;5093030;28;20070;-80
2023/06/24 04:24:38;;;;;;;1.55;1.45;;;15.70;99.90;;;;;;5092704;28;20046;-80
2023/06/24 04:27:07;;;;;;;1.60;1.45;;;15.70;99.90;;;;;;5093386;28;20047;-80
2023/06/24 04:29:32;;;;;;;2.10;1.73;;;15.80;99.90;;;;;;5093084;28;20047;-81
2023/06/24 04:31:58;;;;;;;1.58;1.40;;;15.90;99.90;;;;;;5094586;28;20054;-80
2023/06/24 04:34:24;;;;;;;2.00;1.45;;;16.00;99.90;;;;;;5097132;28;20046;-80
2023/06/24 04:36:49;;;;;;;2.30;1.70;;;16.00;99.90;;;;;;5129107;28;20453;-81
2023/06/24 04:39:15;;;;;;;1.67;1.40;;;16.10;99.90;;;;;;5120607;28;20047;-80
2023/06/24 04:41:41;;;;;;;1.38;1.27;;;16.20;99.90;;;;;;5121836;28;20043;-80
2023/06/24 04:44:06;;;;;;;1.95;1.70;;;16.30;99.90;;;;;;5085107;28;20138;-81
2023/06/24 04:46:34;;;;;;;2.13;1.80;;;16.40;99.90;;;;;;5103112;28;20043;-81
2023/06/24 04:48:59;;;;;;;1.67;1.35;;;16.40;99.90;;;;;;5113905;27;20055;-81
2023/06/24 04:51:25;;;;;;;1.40;1.30;;;16.50;92.30;;;;;;5113750;28;20040;-81
2023/06/24 04:53:51;;;;;;;1.30;1.20;;;16.50;30.80;;;;;;5080681;28;20078;-80
2023/06/24 04:56:17;;;;;;;1.80;1.50;;;16.50;1.00;;;;;;5098327;28;20240;-80
2023/06/24 04:58:42;;;;;;;1.58;1.48;;;16.60;1.00;;;;;;5096766;28;20039;-80
2023/06/24 05:01:08;;;;;;;2.17;1.50;;;16.60;99.90;;;;;;5112746;28;20502;-81
2023/06/24 05:03:34;;;;;;;2.10;1.80;;;16.60;99.90;;;;;;5096868;28;20043;-80
2023/06/24 05:05:59;;;;;;;1.80;1.50;;;16.60;99.90;;;;;;5109477;28;20420;-80
2023/06/24 05:08:25;;;;;;;3.17;1.70;;;16.60;99.90;;;;;;5092476;28;20044;-81
2023/06/24 05:10:51;;;;;;;2.20;1.73;;;16.70;99.90;;;;;;5109203;28;20354;-81
2023/06/24 05:13:17;;;;;;;1.83;1.52;;;16.70;99.90;;;;;;5106726;28;20050;-81
2023/06/24 05:15:42;;;;;;;;;;;16.70;99.90;;;;;;5096092;28;20074;-80
2023/06/24 05:18:08;;;;;;;2.15;1.75;;;16.80;99.90;;;;;;5096386;27;19926;-81
2023/06/24 05:20:33;;;;;;;2.50;2.30;;;16.80;99.90;;;;;;5116519;27;20031;-80
2023/06/24 05:22:59;;;;;;;2.40;2.13;;;16.80;99.90;;;;;;5131501;27;20035;-80
2023/06/24 05:25:25;;;;;;;2.50;2.00;;;16.80;99.90;;;;;;5096088;28;20150;-81
2023/06/24 05:27:50;;;;;;;2.35;2.00;;;16.90;99.90;;;;;;5102502;27;20070;-80
2023/06/24 05:30:17;;;;;;;1.95;1.80;;;16.90;99.90;;;;;;5097490;27;20039;-80
2023/06/24 05:32:43;;;;;;;2.42;2.20;;;17.00;99.90;;;;;;5099545;27;20043;-80
2023/06/24 05:35:09;;;;;;;4.00;2.75;;;17.10;99.90;;;;;;5115557;27;20499;-80
2023/06/24 05:37:34;;;;;;;;;;;17.20;99.90;;;;;;5116975;27;20109;-80
2023/06/24 05:40:01;;;;;;;4.25;3.20;;;17.20;99.90;;;;;;5095692;27;20310;-80
2023/06/24 05:42:27;;;;;;;3.35;3.00;;;17.30;99.90;;;;;;5120997;27;20395;-80
2023/06/24 05:44:53;;;;;;;;;;;17.40;99.90;;;;;;5099515;27;20044;-80
2023/06/24 05:47:19;;;;;;;4.75;3.30;;;17.50;99.90;;;;;;5116536;27;19916;-81
2023/06/24 05:49:44;;;;;;;3.50;3.20;;;17.60;99.90;;;;;;5099161;27;20378;-80
2023/06/24 05:52:11;;;;;;;;;;;17.60;99.90;;;;;;5079683;28;20072;-80
2023/06/24 05:54:37;;;;;;;3.00;2.75;;;17.70;99.90;;;;;;5078679;28;19920;-80
2023/06/24 05:57:05;;;;;;;;;;;17.90;99.90;;;;;;5096336;28;20058;-81
2023/06/24 05:59:32;;;;;;;3.60;3.03;;;18.00;99.90;;;;;;5115056;27;19915;-81
2023/06/24 06:01:58;;;;;;;3.10;2.75;;;18.10;99.90;;;;;;5115954;27;20541;-82
2023/06/24 06:04:23;;;;;;;;;;;18.20;99.90;;;;;;5099121;27;20039;-81
2023/06/24 06:06:49;;;;;;;2.65;2.10;;;18.30;99.90;;;;;;5147295;27;19920;-80
2023/06/24 06:09:15;;;;;;;3.28;1.95;;;18.50;99.90;;;;;;5096687;27;20530;-81
2023/06/24 06:11:40;;;;;;;;;;;18.60;99.90;;;;;;5090125;28;20035;-81
2023/06/24 06:14:06;;;;;;;4.22;2.97;;;18.80;99.90;;;;;;5134822;27;20377;-81
2023/06/24 06:16:31;;;;;;;;;;;19.00;99.90;;;;;;5123781;27;20179;-83
2023/06/24 06:18:57;;;;;;;5.43;3.30;;;19.20;53.80;;;;;;5115643;27;19919;-82
2023/06/24 06:21:23;;;;;;;;;;;19.30;1.00;;;;;;5098994;27;20381;-81
2023/06/24 06:23:49;;;;;;;3.35;3.03;;;19.50;99.90;;;;;;5096370;27;19916;-82
2023/06/24 06:26:15;;;;;;;;;;;19.60;99.90;;;;;;5100531;27;20379;-76
2023/06/24 06:28:40;;;;;;;3.30;2.78;;;19.70;99.90;;;;;;5115434;27;20251;-82
2023/06/24 06:31:06;;;;;;;;;;;19.80;99.90;;;;;;5111009;28;20096;-82
2023/06/24 06:33:32;;;;;;;2.90;2.70;;;19.90;99.90;;;;;;5092126;27;19926;-75
2023/06/24 06:35:58;;;;;;;;;;;20.00;99.90;;;;;;5125880;27;20039;-83
2023/06/24 06:38:24;;;;;;;2.70;2.20;;;20.00;88.70;;;;;;5101682;27;19971;-82
2023/06/24 06:40:50;;;;;;;;;;;20.10;99.90;;;;;;5132644;27;20043;-83
2023/06/24 06:43:16;;;;;;;2.40;2.20;;;20.20;58.40;;;;;;5101039;27;19927;-81
2023/06/24 06:45:41;;;;;;;;;;;20.40;64.70;;;;;;5075456;28;20093;-81
2023/06/24 06:48:08;;;;;;;2.35;2.15;;;20.50;1.00;;;;;;5088810;27;20006;-81
2023/06/24 06:50:34;;;;;;;2.25;2.05;;;20.50;1.00;;;;;;5115137;27;20501;-79
2023/06/24 06:53:00;;;;;;;2.28;2.03;;;20.60;1.00;;;;;;5116035;27;20078;-84
2023/06/24 06:55:27;;;;;;;2.30;2.00;;;20.80;1.00;;;;;;5119528;27;20525;-81
2023/06/24 06:57:53;;;;;;;2.05;1.80;;;21.00;8.10;;;;;;5101106;27;20047;-79
2023/06/24 07:00:19;;;;;;;4.50;2.50;;;21.10;99.90;;;;;;5115527;27;20031;-80
2023/06/24 07:02:45;;;;;;;2.38;2.17;;;21.20;99.90;;;;;;5087650;28;20040;-77
2023/06/24 07:05:11;;;;;;;2.95;2.28;;;21.20;99.90;;;;;;5107187;28;20111;-78
2023/06/24 07:07:40;;;;;;;2.58;2.38;;;21.30;99.90;;;;;;5098813;27;20039;-77
2023/06/24 07:10:06;;;;;;;2.38;2.10;;;21.30;99.90;;;;;;5133235;27;20386;-80
2023/06/24 07:12:32;;;;;;;2.38;2.10;;;21.40;99.90;;;;;;5114289;27;20050;-77
2023/06/24 07:14:58;;;;;;;2.17;1.98;;;21.50;99.90;;;;;;5096501;27;20039;-80
2023/06/24 07:17:23;;;;;;;2.13;1.70;;;21.50;89.10;;;;;;5081020;27;20043;-79
2023/06/24 07:19:49;;;;;;;2.00;1.80;;;21.60;94.70;;;;;;5076866;27;20028;-76
2023/06/24 07:22:15;;;;;;;2.58;1.92;;;21.70;73.80;;;;;;5092781;27;20035;-76
2023/06/24 07:24:41;;;;;;;2.15;1.88;;;21.70;22.00;;;;;;5098117;27;20031;-78
2023/06/24 07:27:07;;;;;;;2.42;1.90;;;21.80;1.00;;;;;;5096597;27;20545;-78
2023/06/24 07:29:33;;;;;;;1.77;1.60;;;21.90;1.00;;;;;;5097542;27;20046;-78
2023/06/24 07:31:59;;;;;;;2.30;1.80;;;21.90;1.00;;;;;;5114384;27;20411;-78
2023/06/24 07:34:25;;;;;;;2.22;1.98;;;22.10;24.80;;;;;;5128794;27;20052;-78
2023/06/24 07:36:51;;;;;;;2.03;1.83;;;22.20;99.90;;;;;;5128189;27;20039;-78
2023/06/24 07:39:17;;;;;;;1.60;1.50;;;22.40;99.90;;;;;;5091892;27;20636;-78
2023/06/24 07:41:43;;;;;;;2.03;1.70;;;22.60;99.90;;;;;;5110101;27;20493;-78
2023/06/24 07:44:09;;;;;;;2.10;1.90;;;22.70;99.90;;;;;;5113805;27;20470;-77
2023/06/24 07:46:35;;;;;;;2.15;1.95;;;22.80;93.20;;;;;;5136326;27;20047;-80
2023/06/24 07:49:00;;;;;;;3.28;2.35;;;22.80;22.50;;;;;;5089065;28;20126;-79
2023/06/24 07:51:27;;;;;;;2.40;2.20;;;22.90;18.80;;;;;;5095867;28;20571;-76
2023/06/24 07:53:52;;;;;;;2.25;1.70;;;22.90;68.40;;;;;;5125594;27;20050;-79
2023/06/24 07:56:22;;;;;;;2.33;1.90;;;23.10;75.40;;;;;;5062505;28;20052;-79
2023/06/24 07:58:47;;;;;;;2.22;1.40;;;23.10;63.40;;;;;;5085773;28;20141;-78
2023/06/24 08:01:13;;;;;;;2.15;1.70;;;23.30;60.00;;;;;;5073829;28;20115;-79
2023/06/24 08:03:39;;;;;;;3.55;2.65;;;23.60;99.90;;;;;;5090899;28;20051;-79
2023/06/24 08:06:05;;;;;;;2.10;1.80;;;23.60;51.40;;;;;;5090478;28;20046;-79
2023/06/24 08:08:31;;;;;;;2.33;2.03;;;23.80;1.00;;;;;;5090832;28;20145;-79
2023/06/24 08:10:56;;;;;;;3.15;1.90;;;23.90;1.00;;;;;;5090791;28;20122;-79
2023/06/24 08:13:22;;;;;;;2.08;1.60;;;24.00;99.90;;;;;;5089343;28;20189;-77
2023/06/24 08:15:49;;;;;;;2.53;2.00;;;24.10;1.00;;;;;;5056864;28;20408;-79
2023/06/24 08:18:15;;;;;;;2.75;2.03;;;24.10;99.90;;;;;;5091866;28;20051;-79
2023/06/24 08:20:41;;;;;;;1.90;1.70;;;24.10;99.90;;;;;;5090011;28;20040;-78
2023/06/24 08:23:07;;;;;;;1.85;1.60;;;24.10;99.90;;;;;;5073289;28;20036;-79
2023/06/24 08:25:32;;;;;;;1.85;1.58;;;24.10;99.90;;;;;;5090606;28;20043;-78
2023/06/24 08:27:58;;;;;;;2.10;1.67;;;24.20;99.90;;;;;;5073344;28;20066;-77
2023/06/24 08:30:24;;;;;;;2.90;1.88;;;24.20;99.90;;;;;;5051332;28;20048;-78
2023/06/24 08:32:50;;;;;;;1.52;1.42;;;24.20;99.90;;;;;;5068799;28;20442;-78
2023/06/24 08:35:16;;;;;;;2.83;1.80;;;24.20;99.90;;;;;;5052272;28;20052;-78
2023/06/24 08:37:42;;;;;;;2.50;2.05;;;24.20;99.90;;;;;;5069885;28;20451;-77
2023/06/24 08:40:08;;;;;;;2.38;1.92;;;24.30;99.90;;;;;;5069405;28;20041;-78
2023/06/24 08:42:34;;;;;;;2.50;2.08;;;24.40;99.90;;;;;;5053371;28;20050;-77
2023/06/24 08:45:00;;;;;;;2.30;2.10;;;24.60;99.90;;;;;;5068682;28;20040;-78
2023/06/24 08:47:29;;;;;;;2.88;2.10;;;24.70;99.90;;;;;;5089272;28;20083;-77
2023/06/24 08:50:14;;;;;;;1.95;1.70;;;24.90;99.90;;;;;;5072529;28;20044;-77
2023/06/24 08:52:46;;;;;;;2.45;1.75;;;25.20;99.90;;;;;;5089719;28;20580;-77
2023/06/24 08:55:15;;;;;;;1.90;1.70;;;25.30;99.90;;;;;;5098610;27;20091;-77
2023/06/24 08:57:41;;;;;;;2.03;1.80;;;25.40;99.90;;;;;;5100411;27;20123;-78
2023/06/24 09:00:10;;;;;;;2.63;1.85;;;25.20;90.50;;;;;;5152000;27;20130;-78
2023/06/24 09:02:37;;;;;;;2.30;2.00;;;25.20;92.10;;;;;;5100809;27;20051;-78
2023/06/24 09:05:07;;;;;;;1.92;1.70;;;25.20;99.60;;;;;;5117179;27;20057;-78
2023/06/24 09:07:33;;;;;;;1.70;1.60;;;25.30;99.90;;;;;;5117120;27;20085;-78
2023/06/24 09:10:03;;;;;;;2.40;1.60;;;25.30;99.90;;;;;;5116802;27;20067;-77
2023/06/24 09:12:32;;;;;;;1.70;1.52;;;25.50;95.30;;;;;;5117491;27;20458;-77
2023/06/24 09:14:58;;;;;;;2.05;1.85;;;25.60;99.90;;;;;;5116834;27;20035;-78
2023/06/24 09:17:24;;;;;;;3.00;2.17;;;25.60;46.00;;;;;;5083141;27;20050;-77
2023/06/24 09:19:50;;;;;;;2.58;2.00;;;25.40;62.20;;;;;;5116689;27;20039;-77
2023/06/24 09:22:19;;;;;;;2.55;2.05;;;25.40;55.30;;;;;;5116828;27;20130;-78
2023/06/24 09:24:47;;;;;;;1.75;1.60;;;25.50;42.90;;;;;;5116415;27;20118;-78
2023/06/24 09:27:14;;;;;;;2.53;2.13;;;25.70;48.90;;;;;;5116975;27;20047;-77
2023/06/24 09:29:42;;;;;;;2.20;2.00;;;26.00;37.60;;;;;;5117039;27;20146;-77
2023/06/24 09:32:08;;;;;;;3.53;2.80;;;26.20;28.70;;;;;;5099863;27;20023;-78
2023/06/24 09:34:35;;;;;;;3.78;2.70;;;26.10;1.00;;;;;;5099681;27;20486;-78
2023/06/24 09:37:01;;;;;;;2.30;2.03;;;26.10;14.90;;;;;;5099649;27;20039;-77
2023/06/24 09:39:31;;;;;;;2.92;1.90;;;26.40;19.50;;;;;;5099842;27;20108;-77
2023/06/24 09:42:01;;;;;;;2.22;1.90;;;26.70;52.40;;;;;;5116796;27;20114;-77
2023/06/24 09:44:28;;;;;;;2.22;1.80;;;26.80;1.00;;;;;;5116270;27;20070;-77
2023/06/24 09:46:56;;;;;;;2.55;2.00;;;26.80;1.00;;;;;;5116900;27;20410;-77
2023/06/24 09:49:22;;;;;;;3.13;1.85;;;26.80;1.00;;;;;;5116362;27;20043;-77
2023/06/24 09:51:51;;;;;;;2.95;2.20;;;27.00;1.00;;;;;;5100016;27;20051;-77
2023/06/24 09:54:17;;;;;;;2.38;1.90;;;27.00;1.00;;;;;;5097763;27;20045;-78
2023/06/24 09:56:47;;;;;;;2.80;2.20;;;27.20;1.80;;;;;;5091640;28;20099;-78
2023/06/24 09:59:14;;;;;;;3.53;2.33;;;27.10;1.00;;;;;;5113632;28;20383;-78
2023/06/24 10:01:43;;;;;;;2.65;2.10;;;27.30;1.00;;;;;;5074469;28;20403;-78
2023/06/24 10:04:10;;;;;;;2.58;1.90;;;27.30;1.00;;;;;;5089454;28;20054;-78
2023/06/24 10:06:36;;;;;;;2.08;1.70;;;27.50;1.00;;;;;;5089998;28;20402;-78
2023/06/24 10:09:05;;;;;;;2.88;2.58;;;27.70;1.00;;;;;;5077302;28;20035;-78
2023/06/24 10:11:31;;;;;;;3.13;2.35;;;27.50;1.00;;;;;;5094933;28;20180;-78
2023/06/24 10:13:57;;;;;;;3.72;2.55;;;27.50;1.00;;;;;;5119162;28;20043;-79
2023/06/24 10:16:23;;;;;;;2.10;1.90;;;27.30;99.90;;;;;;5109098;28;20047;-78
2023/06/24 10:18:49;;;;;;;3.60;2.65;;;27.30;1.00;;;;;;5093630;28;20035;-79
2023/06/24 10:21:16;;;;;;;3.38;2.40;;;27.50;1.00;;;;;;5094928;28;20114;-78
2023/06/24 10:23:42;;;;;;;2.53;2.20;;;27.50;99.90;;;;;;5092507;27;20038;-79
2023/06/24 10:26:28;;;;;;;2.42;1.85;;;27.50;1.00;;;;;;5107298;28;20393;-78
2023/06/24 10:29:05;;;;;;;3.83;2.63;;;27.80;1.00;;;;;;5125178;28;20118;-79
2023/06/24 10:31:41;;;;;;;3.25;2.45;;;27.60;99.90;;;;;;5107582;28;20035;-79
2023/06/24 10:34:31;;;;;;;2.53;2.30;;;27.50;99.90;;;;;;5103498;28;20359;-80
2023/06/24 10:37:12;;;;;;;3.47;2.38;;;27.50;99.90;;;;;;5130641;27;20039;-80
2023/06/24 10:39:40;;;;;;;2.95;2.15;;;27.40;99.90;;;;;;5109665;28;20481;-80
2023/06/24 10:42:25;;;;;;;3.00;2.22;;;27.70;99.90;;;;;;5140223;27;20031;-80
2023/06/24 10:44:51;;;;;;;3.60;2.60;;;27.50;99.90;;;;;;5113006;28;20121;-80
2023/06/24 10:47:18;;;;;;;2.55;2.28;;;27.40;99.90;;;;;;5096916;28;20099;-79
2023/06/24 10:49:45;;;;;;;2.72;2.20;;;27.50;99.90;;;;;;5112397;28;20039;-79
2023/06/24 10:52:11;;;;;;;3.25;2.20;;;27.70;99.90;;;;;;5112159;28;20089;-79
2023/06/24 10:54:38;;;;;;;2.85;2.40;;;27.80;99.90;;;;;;5110306;28;20035;-77
2023/06/24 10:57:04;;;;;;;2.47;2.05;;;28.00;99.90;;;;;;5071711;27;1150798;-76
2023/06/24 10:59:43;;;;;;;3.78;2.20;;;28.20;99.90;;;;;;5096715;27;20050;-76
2023/06/24 11:02:09;;;;;;;2.75;2.22;;;28.40;99.90;;;;;;5096876;27;20049;-78
2023/06/24 11:05:02;;;;;;;2.45;2.05;;;27.90;99.90;;;;;;5116636;27;20167;-77
2023/06/24 11:07:30;;;;;;;2.40;1.92;;;28.00;99.90;;;;;;5142051;27;20193;-76
2023/06/24 11:10:05;;;;;;;2.10;1.80;;;27.90;99.90;;;;;;5113767;27;20073;-76
2023/06/24 11:12:36;;;;;;;2.85;2.42;;;27.80;99.90;;;;;;5115097;27;20135;-78
2023/06/24 11:15:09;;;;;;;2.05;1.88;;;27.40;99.90;;;;;;5098189;27;20043;-78
2023/06/24 11:17:39;;;;;;;2.78;2.13;;;27.10;99.90;;;;;;5114103;27;20051;-77
2023/06/24 11:20:10;;;;;;;2.50;2.22;;;27.20;1.00;;;;;;5097361;27;20039;-77
2023/06/24 11:22:36;;;;;;;2.03;1.70;;;27.20;99.90;;;;;;5114765;27;20071;-77
2023/06/24 11:25:01;;;;;;;3.83;2.13;;;27.70;1.00;;;;;;5112183;28;20145;-79
2023/06/24 11:27:29;;;;;;;3.15;2.85;;;27.70;99.90;;;;;;5113713;27;20047;-78
2023/06/24 11:29:58;;;;;;;3.22;2.50;;;27.60;99.90;;;;;;5080479;27;20092;-79
2023/06/24 11:32:24;;;;;;;2.67;1.90;;;28.00;99.90;;;;;;5140821;27;20054;-79
2023/06/24 11:34:50;;;;;;;2.65;1.98;;;28.20;99.90;;;;;;5114032;27;20046;-79
2023/06/24 11:37:18;;;;;;;2.90;2.00;;;28.50;99.90;;;;;;5113565;27;20509;-79
2023/06/24 11:39:44;;;;;;;3.28;2.33;;;28.20;99.90;;;;;;5111180;27;20049;-79
2023/06/24 11:42:11;;;;;;;2.53;2.28;;;28.20;99.90;;;;;;5097253;27;20043;-80
2023/06/24 11:44:45;;;;;;;2.50;2.20;;;28.60;99.90;;;;;;5114192;27;20067;-79
2023/06/24 11:47:12;;;;;;;3.33;2.28;;;28.50;99.90;;;;;;5113973;27;20040;-79
2023/06/24 11:49:57;;;;;;;3.38;2.47;;;28.60;99.90;;;;;;5096870;27;20035;-79
2023/06/24 11:52:36;;;;;;;1.98;1.80;;;28.10;99.90;;;;;;5098141;27;20118;-79
2023/06/24 11:55:02;;;;;;;2.03;1.70;;;28.10;99.90;;;;;;5104085;27;20043;-79
2023/06/24 11:57:52;;;;;;;2.10;1.80;;;28.10;99.90;;;;;;5114673;27;20443;-79
2023/06/24 12:00:23;;;;;;;4.75;2.58;;;28.20;99.90;;;;;;5112609;27;20054;-80
2023/06/24 12:03:04;;;;;;;3.00;2.38;;;28.10;99.90;;;;;;5094481;27;20413;-80
2023/06/24 12:05:36;;;;;;;2.15;1.90;;;28.20;99.90;;;;;;5140228;27;20103;-79
2023/06/24 12:08:06;;;;;;;2.40;2.10;;;28.70;99.90;;;;;;5113391;27;20053;-79
2023/06/24 12:10:33;;;;;;;3.03;2.05;;;28.70;99.90;;;;;;5095995;27;20073;-80
2023/06/24 12:13:00;;;;;;;2.88;2.50;;;29.10;99.90;;;;;;5113042;27;20542;-80
2023/06/24 12:15:26;;;;;;;3.28;2.17;;;28.60;99.90;;;;;;5096177;27;20174;-80
2023/06/24 12:17:52;;;;;;;3.45;2.03;;;28.10;99.90;;;;;;5113569;27;20047;-78
2023/06/24 12:20:18;;;;;;;2.45;1.80;;;28.20;99.90;;;;;;5096429;27;20120;-79
2023/06/24 12:22:45;;;;;;;2.50;2.30;;;28.70;99.90;;;;;;5096062;27;20130;-80
2023/06/24 12:25:11;;;;;;;3.75;2.28;;;28.70;99.90;;;;;;5095205;28;20046;-78
2023/06/24 12:27:38;;;;;;;3.13;2.40;;;28.70;99.90;;;;;;5147923;27;20043;-79
2023/06/24 12:30:04;;;;;;;2.58;2.17;;;28.90;99.90;;;;;;5112265;27;20360;-78
2023/06/24 12:32:30;;;;;;;2.28;1.95;;;28.70;99.90;;;;;;5113082;27;20140;-80
2023/06/24 12:34:55;;;;;;;2.72;2.20;;;29.10;99.90;;;;;;5147280;27;20786;-79
2023/06/24 12:37:22;;;;;;;2.53;2.00;;;28.90;99.90;;;;;;5075888;28;20048;-78
2023/06/24 12:39:50;;;;;;;4.57;2.63;;;29.10;99.90;;;;;;5107968;28;20486;-79
2023/06/24 12:42:16;;;;;;;2.88;1.90;;;29.00;99.90;;;;;;5112870;28;20119;-79
2023/06/24 12:44:42;;;;;;;2.55;2.00;;;29.10;99.90;;;;;;5113282;27;20493;-79
2023/06/24 12:47:08;;;;;;;3.08;2.00;;;29.20;99.90;;;;;;5112802;28;20073;-79
2023/06/24 12:49:33;;;;;;;3.15;2.05;;;29.30;99.90;;;;;;5112739;28;20039;-79
2023/06/24 12:52:01;;;;;;;1.85;1.60;;;29.40;99.90;;;;;;5133559;27;20053;-79
2023/06/24 12:54:27;;;;;;;1.98;1.73;;;29.60;99.90;;;;;;5096272;28;20043;-78
2023/06/24 12:56:52;;;;;;;2.03;1.83;;;29.40;99.90;;;;;;5112421;28;20054;-79